createdAt,value
2023-04-19T00:00:21.559Z,57.17
2023-04-19T00:02:54.536Z,57.19
2023-04-19T00:05:26.419Z,57.24
2023-04-19T00:07:57.496Z,57.14
2023-04-19T00:10:28.448Z,57.27
2023-04-19T00:12:59.136Z,57.33
2023-04-19T00:15:29.846Z,57.07
2023-04-19T00:18:01.554Z,57.26
2023-04-19T00:20:32.737Z,57.25
2023-04-19T00:23:03.936Z,57.25
2023-04-19T00:25:34.865Z,57.27
2023-04-19T00:28:06.102Z,57.30
2023-04-19T00:30:36.824Z,57.27
2023-04-19T00:33:12.977Z,57.39
2023-04-19T00:35:44.123Z,57.41
2023-04-19T00:38:14.781Z,57.48
2023-04-19T00:40:46.988Z,57.56
2023-04-19T00:43:21.306Z,57.51
2023-04-19T00:45:52.850Z,57.66
2023-04-19T00:48:23.902Z,57.52
2023-04-19T00:50:54.819Z,57.57
2023-04-19T00:53:25.997Z,57.62
2023-04-19T00:56:01.073Z,57.61
2023-04-19T00:58:32.899Z,57.63
2023-04-19T01:01:03.640Z,57.69
2023-04-19T01:03:35.197Z,57.75
2023-04-19T01:06:06.234Z,57.77
2023-04-19T01:08:36.899Z,57.86
2023-04-19T01:11:08.084Z,57.79
2023-04-19T01:13:39.170Z,57.81
2023-04-19T01:16:10.575Z,57.80
2023-04-19T01:18:41.256Z,57.85
2023-04-19T01:21:12.968Z,57.75
2023-04-19T01:23:44.159Z,57.77
2023-04-19T01:26:14.891Z,57.84
2023-04-19T01:28:45.604Z,57.92
2023-04-19T01:31:16.297Z,57.86
2023-04-19T01:33:46.998Z,57.85
2023-04-19T01:36:17.918Z,57.89
2023-04-19T01:38:49.113Z,58.13
2023-04-19T01:41:20.512Z,58.08
2023-04-19T01:43:51.408Z,58.18
2023-04-19T01:46:22.188Z,58.14
2023-04-19T01:48:52.861Z,58.23
2023-04-19T01:51:23.821Z,58.07
2023-04-19T01:53:54.861Z,58.35
2023-04-19T01:56:26.255Z,58.35
2023-04-19T01:58:56.952Z,58.39
2023-04-19T02:01:27.706Z,58.34
2023-04-19T02:03:58.853Z,58.34
2023-04-19T02:06:29.599Z,58.41
2023-04-19T02:09:00.372Z,58.37
2023-04-19T02:11:31.257Z,58.48
2023-04-19T02:14:01.916Z,58.45
2023-04-19T02:16:35.635Z,58.36
2023-04-19T02:19:06.742Z,58.37
2023-04-19T02:21:37.375Z,58.37
2023-04-19T02:24:09.173Z,58.42
2023-04-19T02:26:40.342Z,58.46
2023-04-19T02:29:11.186Z,58.49
2023-04-19T02:31:41.964Z,58.54
2023-04-19T02:34:12.806Z,58.60
2023-04-19T02:36:43.862Z,58.62
2023-04-19T02:39:14.603Z,58.69
2023-04-19T02:41:45.730Z,58.63
2023-04-19T02:44:16.598Z,58.61
2023-04-19T02:46:52.552Z,58.58
2023-04-19T02:49:24.201Z,58.70
2023-04-19T02:51:54.915Z,58.61
2023-04-19T02:54:25.678Z,58.77
2023-04-19T02:56:56.734Z,58.78
2023-04-19T02:59:27.895Z,58.68
2023-04-19T03:01:58.533Z,58.68
2023-04-19T03:04:29.442Z,58.79
2023-04-19T03:07:00.392Z,58.85
2023-04-19T03:09:30.995Z,58.76
2023-04-19T03:12:02.245Z,58.66
2023-04-19T03:14:34.165Z,58.77
2023-04-19T03:17:05.045Z,58.71
2023-04-19T03:19:35.757Z,58.74
2023-04-19T03:22:06.761Z,58.73
2023-04-19T03:24:38.234Z,58.78
2023-04-19T03:27:09.280Z,58.91
2023-04-19T03:29:40.295Z,59.07
2023-04-19T03:32:11.840Z,59.12
2023-04-19T03:34:42.587Z,59.33
2023-04-19T03:37:13.334Z,59.29
2023-04-19T03:39:44.082Z,59.31
2023-04-19T03:42:14.772Z,58.99
2023-04-19T03:44:45.878Z,58.72
2023-04-19T03:47:16.736Z,58.61
2023-04-19T03:49:47.660Z,58.46
2023-04-19T03:52:18.682Z,58.46
2023-04-19T03:54:49.697Z,58.42
2023-04-19T03:57:21.116Z,58.29
2023-04-19T03:59:52.226Z,58.22
2023-04-19T04:02:23.077Z,58.14
2023-04-19T04:04:57.639Z,58.34
2023-04-19T04:07:28.582Z,58.01
2023-04-19T04:09:59.379Z,57.58
2023-04-19T04:12:30.070Z,57.38
2023-04-19T04:15:01.173Z,57.24
2023-04-19T04:17:32.023Z,57.19
2023-04-19T04:20:03.259Z,56.97
2023-04-19T04:22:34.178Z,56.78
2023-04-19T04:25:04.995Z,56.83
2023-04-19T04:27:36.271Z,56.81
2023-04-19T04:30:09.070Z,56.75
2023-04-19T04:32:41.219Z,57.06
2023-04-19T04:35:14.076Z,57.06
2023-04-19T04:37:44.813Z,57.16
2023-04-19T04:40:16.535Z,57.27
2023-04-19T04:42:47.223Z,57.23
2023-04-19T04:45:19.329Z,57.23
2023-04-19T04:47:50.030Z,57.31
2023-04-19T04:50:21.423Z,57.34
2023-04-19T04:52:52.077Z,56.99
2023-04-19T04:55:23.417Z,57.11
2023-04-19T04:57:54.257Z,57.29
2023-04-19T05:00:25.924Z,57.30
2023-04-19T05:02:56.731Z,57.34
2023-04-19T05:05:27.887Z,57.43
2023-04-19T05:07:59.302Z,57.43
2023-04-19T05:10:30.360Z,57.42
2023-04-19T05:13:01.982Z,57.39
2023-04-19T05:15:32.793Z,57.30
2023-04-19T05:18:03.675Z,57.41
2023-04-19T05:20:34.947Z,57.42
2023-04-19T05:23:05.946Z,57.42
2023-04-19T05:25:36.767Z,57.27
2023-04-19T05:28:07.924Z,57.18
2023-04-19T05:30:38.840Z,57.35
2023-04-19T05:33:09.649Z,57.15
2023-04-19T05:35:40.595Z,57.13
2023-04-19T05:38:11.290Z,57.12
2023-04-19T05:40:42.026Z,57.17
2023-04-19T05:43:12.878Z,57.18
2023-04-19T05:45:43.622Z,57.15
2023-04-19T05:48:14.354Z,57.13
2023-04-19T05:50:45.149Z,57.17
2023-04-19T05:53:15.892Z,57.23
2023-04-19T05:55:48.222Z,57.19
2023-04-19T05:58:19.248Z,57.19
2023-04-19T06:00:50.073Z,57.17
2023-04-19T06:03:21.090Z,57.25
2023-04-19T06:05:52.011Z,57.17
2023-04-19T06:08:22.809Z,57.10
2023-04-19T06:10:57.048Z,57.10
2023-04-19T06:13:32.691Z,57.02
2023-04-19T06:16:03.458Z,57.04
2023-04-19T06:18:34.189Z,56.91
2023-04-19T06:21:06.345Z,56.94
2023-04-19T06:23:37.035Z,56.97
2023-04-19T06:26:07.801Z,56.99
2023-04-19T06:28:38.570Z,56.87
2023-04-19T06:31:09.368Z,56.89
2023-04-19T06:33:40.722Z,56.85
2023-04-19T06:36:12.475Z,56.86
2023-04-19T06:38:45.680Z,56.80
2023-04-19T06:41:16.409Z,56.74
2023-04-19T06:43:47.260Z,56.77
2023-04-19T06:46:18.389Z,56.78
2023-04-19T06:48:49.249Z,56.74
2023-04-19T06:51:19.870Z,56.72
2023-04-19T06:53:52.186Z,56.63
2023-04-19T06:56:45.267Z,56.75
2023-04-19T06:59:18.120Z,56.74
2023-04-19T07:01:49.786Z,56.56
2023-04-19T07:04:21.227Z,56.68
2023-04-19T07:06:52.849Z,56.60
2023-04-19T07:09:23.588Z,56.58
2023-04-19T07:11:54.356Z,56.48
2023-04-19T07:14:25.282Z,56.50
2023-04-19T07:16:56.225Z,56.39
2023-04-19T07:19:28.293Z,56.41
2023-04-19T07:21:59.240Z,56.41
2023-04-19T07:24:31.181Z,56.44
2023-04-19T07:27:02.096Z,56.42
2023-04-19T07:29:32.987Z,56.39
2023-04-19T07:32:03.808Z,56.42
2023-04-19T07:34:34.768Z,56.29
2023-04-19T07:37:05.715Z,56.29
2023-04-19T07:39:36.654Z,56.22
2023-04-19T07:42:07.453Z,56.22
2023-04-19T07:44:38.522Z,56.14
2023-04-19T07:47:09.245Z,56.14
2023-04-19T07:49:39.967Z,56.14
2023-04-19T07:52:11.666Z,56.21
2023-04-19T07:54:43.926Z,56.23
2023-04-19T07:57:14.822Z,56.11
2023-04-19T07:59:45.506Z,56.08
2023-04-19T08:02:18.772Z,56.21
2023-04-19T08:04:50.021Z,56.14
2023-04-19T08:07:21.137Z,56.03
2023-04-19T08:09:51.869Z,56.09
2023-04-19T08:12:34.536Z,56.02
2023-04-19T08:15:28.182Z,56.02
2023-04-19T08:18:01.990Z,56.08
2023-04-19T08:20:33.363Z,56.05
2023-04-19T08:23:17.724Z,55.99
2023-04-19T08:25:49.455Z,55.95
2023-04-19T08:28:20.382Z,55.94
2023-04-19T08:30:51.233Z,56.00
2023-04-19T08:33:22.535Z,55.99
2023-04-19T08:35:53.476Z,55.92
2023-04-19T08:38:24.425Z,55.86
2023-04-19T08:40:56.205Z,55.81
2023-04-19T08:43:33.565Z,55.75
2023-04-19T08:46:06.309Z,55.82
2023-04-19T08:48:38.178Z,55.74
2023-04-19T08:51:09.865Z,55.77
2023-04-19T08:53:41.024Z,55.81
2023-04-19T08:56:21.161Z,55.74
2023-04-19T08:59:07.528Z,55.85
2023-04-19T09:01:46.011Z,55.75
2023-04-19T09:04:35.838Z,55.68
2023-04-19T09:07:08.359Z,55.62
2023-04-19T09:09:55.439Z,55.58
2023-04-19T09:12:34.992Z,55.56
2023-04-19T09:15:09.013Z,55.48
2023-04-19T09:17:41.543Z,55.45
2023-04-19T09:20:13.143Z,55.60
2023-04-19T09:22:44.026Z,55.63
2023-04-19T09:28:12.508Z,55.55
2023-04-19T09:30:57.883Z,55.41
2023-04-19T09:33:39.984Z,55.57
2023-04-19T09:36:14.599Z,55.57
2023-04-19T09:38:51.478Z,55.53
2023-04-19T09:41:22.122Z,55.46
2023-04-19T09:46:38.058Z,55.41
2023-04-19T09:49:33.756Z,55.48
2023-04-19T09:52:16.486Z,55.42
2023-04-19T09:54:49.085Z,55.39
2023-04-19T09:57:20.762Z,55.45
2023-04-19T09:59:51.712Z,55.41
2023-04-19T10:02:23.885Z,55.39
2023-04-19T10:05:15.744Z,55.45
2023-04-19T10:07:49.070Z,55.51
2023-04-19T10:10:27.563Z,55.45
2023-04-19T10:13:19.821Z,55.57
2023-04-19T10:15:57.358Z,55.39
2023-04-19T10:18:36.603Z,55.41
2023-04-19T10:21:11.845Z,55.47
2023-04-19T10:23:43.252Z,55.33
2023-04-19T10:26:14.068Z,55.44
2023-04-19T10:28:45.762Z,55.42
2023-04-19T10:31:16.655Z,55.39
2023-04-19T10:33:49.170Z,55.36
2023-04-19T10:36:20.017Z,55.39
2023-04-19T10:38:53.712Z,55.35
2023-04-19T10:41:24.709Z,55.37
2023-04-19T10:44:12.881Z,55.45
2023-04-19T10:46:43.641Z,55.53
2023-04-19T10:49:14.917Z,55.42
2023-04-19T10:51:54.984Z,55.43
2023-04-19T10:54:31.816Z,55.45
2023-04-19T10:57:06.819Z,55.58
2023-04-19T10:59:38.549Z,55.42
2023-04-19T11:02:29.633Z,55.45
2023-04-19T11:05:05.570Z,55.45
2023-04-19T11:07:43.684Z,55.43
2023-04-19T11:10:14.412Z,55.40
2023-04-19T11:12:48.286Z,55.46
2023-04-19T11:15:23.182Z,55.45
2023-04-19T11:18:08.849Z,55.42
2023-04-19T11:20:40.199Z,55.69
2023-04-19T11:23:18.939Z,55.46
2023-04-19T11:25:52.642Z,55.43
2023-04-19T11:28:24.302Z,55.38
2023-04-19T11:30:56.168Z,55.40
2023-04-19T11:33:28.713Z,55.24
2023-04-19T11:35:59.767Z,55.28
2023-04-19T11:38:31.999Z,55.28
2023-04-19T11:41:04.225Z,55.21
2023-04-19T11:43:39.362Z,55.29
2023-04-19T11:46:12.192Z,55.16
2023-04-19T11:48:53.583Z,55.20
2023-04-19T11:51:24.985Z,55.37
2023-04-19T11:53:55.686Z,55.27
2023-04-19T11:56:26.435Z,55.32
2023-04-19T11:59:00.293Z,55.19
2023-04-19T12:01:30.201Z,55.31
2023-04-19T12:04:01.785Z,55.24
2023-04-19T12:06:33.755Z,55.21
2023-04-19T12:09:10.187Z,55.22
2023-04-19T12:11:50.452Z,55.25
2023-04-19T12:14:23.019Z,55.21
2023-04-19T12:17:12.129Z,55.30
2023-04-19T12:19:47.284Z,55.45
2023-04-19T12:22:21.140Z,55.36
2023-04-19T12:24:54.497Z,55.22
2023-04-19T12:27:25.867Z,55.36
2023-04-19T12:29:57.171Z,55.30
2023-04-19T12:32:28.836Z,55.45
2023-04-19T12:34:59.562Z,55.31
2023-04-19T12:37:30.557Z,55.27
2023-04-19T12:40:01.375Z,55.22
2023-04-19T12:42:32.837Z,55.21
2023-04-19T12:45:03.644Z,55.26
2023-04-19T12:47:34.370Z,55.22
2023-04-19T12:50:06.047Z,55.26
2023-04-19T12:52:37.025Z,55.36
2023-04-19T12:55:09.690Z,55.31
2023-04-19T12:57:40.750Z,55.28
2023-04-19T13:00:17.359Z,55.25
2023-04-19T13:02:49.354Z,55.22
2023-04-19T13:05:20.878Z,55.28
2023-04-19T13:07:51.987Z,55.33
2023-04-19T13:10:23.158Z,55.31
2023-04-19T13:12:53.938Z,55.29
2023-04-19T13:15:24.952Z,55.32
2023-04-19T13:17:55.840Z,55.18
2023-04-19T13:20:27.116Z,55.42
2023-04-19T13:22:58.269Z,55.16
2023-04-19T13:25:29.273Z,55.20
2023-04-19T13:28:00.130Z,55.21
2023-04-19T13:30:31.173Z,55.18
2023-04-19T13:33:02.004Z,55.20
2023-04-19T13:35:32.914Z,55.22
2023-04-19T13:38:04.466Z,55.19
2023-04-19T13:40:35.268Z,55.22
2023-04-19T13:43:06.212Z,55.19
2023-04-19T13:45:37.179Z,55.20
2023-04-19T13:48:08.957Z,55.11
2023-04-19T13:50:40.286Z,53.86
2023-04-19T13:53:11.202Z,52.25
2023-04-19T13:55:42.160Z,51.84
2023-04-19T13:58:15.738Z,50.00
2023-04-19T14:00:48.409Z,50.57
2023-04-19T14:03:19.814Z,51.10
2023-04-19T14:05:50.751Z,51.20
2023-04-19T14:08:21.878Z,51.21
2023-04-19T14:10:52.718Z,51.09
2023-04-19T14:13:24.354Z,51.19
2023-04-19T14:15:55.144Z,51.30
2023-04-19T14:18:26.007Z,51.30
2023-04-19T14:20:58.107Z,51.17
2023-04-19T14:23:29.684Z,50.72
2023-04-19T14:26:00.798Z,49.69
2023-04-19T14:28:32.105Z,48.60
2023-04-19T14:31:02.941Z,49.20
2023-04-19T14:33:33.825Z,49.26
2023-04-19T14:36:05.105Z,49.43
2023-04-19T14:38:36.540Z,49.29
2023-04-19T14:41:08.025Z,49.33
2023-04-19T14:43:38.934Z,49.33
2023-04-19T14:46:09.781Z,49.34
2023-04-19T14:48:40.691Z,49.47
2023-04-19T14:51:11.931Z,49.24
2023-04-19T14:53:43.011Z,49.21
2023-04-19T14:56:14.015Z,48.98
2023-04-19T14:58:44.842Z,49.00
2023-04-19T15:01:16.893Z,48.94
2023-04-19T15:03:48.899Z,48.73
2023-04-19T15:06:20.873Z,48.59
2023-04-19T15:08:51.902Z,48.56
2023-04-19T15:11:23.065Z,48.37
2023-04-19T15:13:55.011Z,48.29
2023-04-19T15:16:26.321Z,48.27
2023-04-19T15:18:57.383Z,47.97
2023-04-19T15:21:28.437Z,48.01
2023-04-19T15:23:59.615Z,47.93
2023-04-19T15:26:30.447Z,47.99
2023-04-19T15:29:01.487Z,47.84
2023-04-19T15:31:32.627Z,47.87
2023-04-19T15:34:05.677Z,47.85
2023-04-19T15:36:36.974Z,48.00
2023-04-19T15:39:08.519Z,47.94
2023-04-19T15:41:39.478Z,47.95
2023-04-19T15:44:10.717Z,47.88
2023-04-19T15:46:42.120Z,47.88
2023-04-19T15:49:13.025Z,47.87
2023-04-19T15:51:44.434Z,47.89
2023-04-19T15:54:16.747Z,47.99
2023-04-19T15:56:48.564Z,47.82
2023-04-19T15:59:20.006Z,47.74
2023-04-19T16:01:51.672Z,47.71
2023-04-19T16:04:23.399Z,47.74
2023-04-19T16:06:54.627Z,47.78
2023-04-19T16:09:26.493Z,47.71
2023-04-19T16:11:57.422Z,47.66
2023-04-19T16:14:28.799Z,47.61
2023-04-19T16:17:02.422Z,47.54
2023-04-19T16:19:34.014Z,47.65
2023-04-19T16:22:05.661Z,47.59
2023-04-19T16:24:36.537Z,47.57
2023-04-19T16:27:07.794Z,47.57
2023-04-19T16:29:39.536Z,47.51
2023-04-19T16:32:10.923Z,47.54
2023-04-19T16:34:42.190Z,47.45
2023-04-19T16:37:13.807Z,47.55
2023-04-19T16:39:44.723Z,47.63
2023-04-19T16:42:16.124Z,47.53
2023-04-19T16:44:46.953Z,47.51
2023-04-19T16:47:17.966Z,47.39
2023-04-19T16:49:50.635Z,47.14
2023-04-19T16:52:21.527Z,47.15
2023-04-19T16:54:52.967Z,47.32
2023-04-19T16:57:24.483Z,47.18
2023-04-19T16:59:55.640Z,47.34
2023-04-19T17:02:27.316Z,47.08
2023-04-19T17:05:00.067Z,47.16
2023-04-19T17:07:31.459Z,47.24
2023-04-19T17:10:02.514Z,47.18
2023-04-19T17:12:33.800Z,47.27
2023-04-19T17:15:05.239Z,47.17
2023-04-19T17:17:36.611Z,47.05
2023-04-19T17:20:10.054Z,47.02
2023-04-19T17:22:42.710Z,47.03
2023-04-19T17:25:14.573Z,46.80
2023-04-19T17:27:45.757Z,47.01
2023-04-19T17:30:17.736Z,46.95
2023-04-19T17:32:49.232Z,47.03
2023-04-19T17:35:21.807Z,46.89
2023-04-19T17:37:53.506Z,46.90
2023-04-19T17:40:25.164Z,46.82
2023-04-19T17:42:56.557Z,46.86
2023-04-19T17:45:27.617Z,46.78
2023-04-19T17:47:59.384Z,46.80
2023-04-19T17:50:31.370Z,46.71
2023-04-19T17:53:03.039Z,46.58
2023-04-19T17:55:33.996Z,46.60
2023-04-19T17:58:05.313Z,46.39
2023-04-19T18:00:36.522Z,46.63
2023-04-19T18:03:10.886Z,46.49
2023-04-19T18:05:43.110Z,46.58
2023-04-19T18:08:14.572Z,46.38
2023-04-19T18:10:47.063Z,46.41
2023-04-19T18:13:18.228Z,46.29
2023-04-19T18:15:49.065Z,46.34
2023-04-19T18:18:20.071Z,46.25
2023-04-19T18:20:51.110Z,46.23
2023-04-19T18:23:22.363Z,46.24
2023-04-19T18:25:57.255Z,46.04
2023-04-19T18:28:28.251Z,46.46
2023-04-19T18:30:59.448Z,46.51
2023-04-19T18:33:30.768Z,46.57
2023-04-19T18:36:02.324Z,46.72
2023-04-19T18:38:33.487Z,46.78
2023-04-19T18:41:04.750Z,46.94
2023-04-19T18:43:36.315Z,47.06
2023-04-19T18:46:07.886Z,47.09
2023-04-19T18:48:39.800Z,47.34
2023-04-19T18:51:13.321Z,47.32
2023-04-19T18:53:45.515Z,47.47
2023-04-19T18:56:18.604Z,47.59
2023-04-19T18:58:51.129Z,47.66
2023-04-19T19:01:22.872Z,47.93
2023-04-19T19:04:19.091Z,48.03
2023-04-19T19:06:46.258Z,48.31
2023-04-19T19:09:18.164Z,48.45
2023-04-19T19:11:56.077Z,48.50
2023-04-19T19:14:28.315Z,48.65
2023-04-19T19:16:59.517Z,48.67
2023-04-19T19:19:31.414Z,48.44
2023-04-19T19:22:03.644Z,48.78
2023-04-19T19:24:34.953Z,48.93
2023-04-19T19:27:06.217Z,49.00
2023-04-19T19:29:37.697Z,49.01
2023-04-19T19:32:09.938Z,49.15
2023-04-19T19:34:53.791Z,49.14
2023-04-19T19:37:26.561Z,49.30
2023-04-19T19:40:02.754Z,49.33
2023-04-19T19:42:35.229Z,49.42
2023-04-19T19:45:07.352Z,49.51
2023-04-19T19:47:44.525Z,49.55
2023-04-19T19:52:50.917Z,49.67
2023-04-19T19:55:21.783Z,49.73
2023-04-19T20:03:04.253Z,50.01
2023-04-19T20:05:37.581Z,50.07
2023-04-19T20:08:10.538Z,50.07
2023-04-19T20:10:43.433Z,50.11
2023-04-19T20:13:14.769Z,50.26
2023-04-19T20:15:47.460Z,50.31
2023-04-19T20:18:18.935Z,50.37
2023-04-19T20:20:51.772Z,50.26
2023-04-19T20:23:23.464Z,50.41
2023-04-19T20:25:54.261Z,50.44
2023-04-19T20:28:25.201Z,50.54
2023-04-19T20:30:56.604Z,50.54
2023-04-19T20:33:28.410Z,50.56
2023-04-19T20:36:00.816Z,50.58
2023-04-19T20:38:34.615Z,50.62
2023-04-19T20:41:04.223Z,50.62
2023-04-19T20:43:34.974Z,50.75
2023-04-19T20:46:07.033Z,50.81
2023-04-19T20:48:37.987Z,50.94
2023-04-19T20:51:08.812Z,50.83
2023-04-19T20:53:39.734Z,51.00
2023-04-19T20:56:10.640Z,51.03
2023-04-19T20:58:41.434Z,51.11
2023-04-19T21:01:17.141Z,51.10
2023-04-19T21:03:48.389Z,51.21
2023-04-19T21:06:22.442Z,51.25
2023-04-19T21:08:53.993Z,51.38
2023-04-19T21:11:25.043Z,51.44
2023-04-19T21:13:56.164Z,51.39
2023-04-19T21:16:27.218Z,51.39
2023-04-19T21:18:58.343Z,51.61
2023-04-19T21:21:30.533Z,51.61
2023-04-19T21:24:02.446Z,51.62
2023-04-19T21:26:33.467Z,51.73
2023-04-19T21:29:04.495Z,51.78
2023-04-19T21:31:35.371Z,51.79
2023-04-19T21:34:06.180Z,51.93
2023-04-19T21:36:37.024Z,52.07
2023-04-19T21:39:08.167Z,52.04
2023-04-19T21:41:39.939Z,52.16
2023-04-19T21:44:10.947Z,52.15
2023-04-19T21:46:41.888Z,52.23
2023-04-19T21:49:12.761Z,52.38
2023-04-19T21:51:43.658Z,52.30
2023-04-19T21:54:26.678Z,52.40
2023-04-19T21:57:04.337Z,52.47
2023-04-19T21:59:37.666Z,52.50
2023-04-19T22:02:08.798Z,52.49
2023-04-19T22:04:39.659Z,52.51
2023-04-19T22:07:12.559Z,52.55
2023-04-19T22:09:44.051Z,52.50
2023-04-19T22:12:14.997Z,52.70
2023-04-19T22:14:45.983Z,52.81
2023-04-19T22:17:18.615Z,52.80
2023-04-19T22:19:49.820Z,52.84
2023-04-19T22:22:20.505Z,52.94
2023-04-19T22:24:56.925Z,52.91
2023-04-19T22:27:29.197Z,52.88
2023-04-19T22:29:59.920Z,52.98
2023-04-19T22:32:30.746Z,53.11
2023-04-19T22:35:01.563Z,53.13
2023-04-19T22:37:32.425Z,53.12
2023-04-19T22:40:05.309Z,53.21
2023-04-19T22:42:37.245Z,53.31
2023-04-19T22:45:10.037Z,53.44
2023-04-19T22:47:40.756Z,53.54
2023-04-19T22:50:12.949Z,53.48
2023-04-19T22:52:44.662Z,53.47
2023-04-19T22:55:15.645Z,53.55
2023-04-19T22:57:46.525Z,53.50
2023-04-19T23:00:18.445Z,53.41
2023-04-19T23:02:49.199Z,53.71
2023-04-19T23:05:20.240Z,53.64
2023-04-19T23:07:50.998Z,53.65
2023-04-19T23:10:21.835Z,53.58
2023-04-19T23:12:54.396Z,53.66
2023-04-19T23:15:26.055Z,53.56
2023-04-19T23:17:56.871Z,53.70
2023-04-19T23:20:30.185Z,53.68
2023-04-19T23:23:00.783Z,53.78
2023-04-19T23:25:31.459Z,53.74
2023-04-19T23:28:02.208Z,53.75
2023-04-19T23:30:32.906Z,53.82
2023-04-19T23:33:03.763Z,53.88
2023-04-19T23:35:34.754Z,53.91
2023-04-19T23:38:05.363Z,53.97
2023-04-19T23:40:36.779Z,53.97
2023-04-19T23:43:07.880Z,53.99
2023-04-19T23:45:38.595Z,54.06
2023-04-19T23:48:09.776Z,54.18
2023-04-19T23:50:40.424Z,54.14
2023-04-19T23:53:11.684Z,54.15
2023-04-19T23:55:42.700Z,54.24
2023-04-19T23:58:13.455Z,54.27
